Pagrindinis puslapis
METAR-TAF:

METAR-TAF

Oro uostai :

Mariboras, Slovėnija

platuma: 46-29N, ilguma: 015-41E, Aukštis: 264 m

Dabartinis oras

Ataskaita buvo paskelbta 32 minutes, ne 10:30 UTC
Vėjas 8 kt iš Pietų/Pietryčių, svyruoja nuo Rytų/Pietryčių ir Pietų
Temperatūra 17°C
Drėgmė 42%
Slėgis 1026 hPa
Matomumas 10 km arba daugiau
nėra debesų žemiau 1500 m ir nėra kamuolinių lietaus debesų

METAR: LJMB 211030Z 15008KT 120V190 CAVOK 17/04 Q1026

Laikas: 13:02 (11:02 UTC)

Prognozė

Ataskaita buvo paskelbta 3 valandos ir 2 minutes, ne 08:00 UTC
Prognozė galioja nuo 21 metu 09 UTC su 22 metu 09 UTC
Vėjas 3 kt iš Šiaurės
Matomumas 10 km arba daugiau
nėra debesų žemiau 1500 m ir nėra kamuolinių lietaus debesų
Tapsmas
nuo 21 metu 09 UTC su 21 metu 10 UTC
Vėjas 5 kt iš Pietų
Laikinai
nuo 21 metu 11 UTC su 21 metu 17 UTC
Vėjas 10 kt iš Pietų
Tapsmas
nuo 21 metu 19 UTC su 21 metu 21 UTC
Vėjas 2 kt nuo kintamojo kryptimis

TAF: LJMB 210800Z 2109/2209 36003KT CAVOK BECMG 2109/2110 18005KT TEMPO 2111/2117 19010KT BECMG 2119/2121 VRB02KT

Orai ataskaitas ir orų prognozės (METAR, TAF).

turimą stotys yra geltonos ir raudonos taškus žemėlapyje.

Perkelti pele per norėdami pamatyti stoties vardą.

Tada spustelėkite, norėdami matyti oro stebėjimo ir prognozės.

Norėdami pakeisti žemėlapį: spustelėkite ant žalios mygtukų su juodo kryžiaus žemyn,; žalią mygtuką su brūkšneliu, jei norite nutolinti; arba žalių rodyklių gretimoms žemėlapius.


METAR-TAF: